Tiempo atmosférico en la estación meteorológica de Lugo Aeropuerto, Lugo (445 m.)



Fecha
DESCASC
Temp. máxima en grados centígrados (hora)
DESCASC
Temp. mínima en grados centígrados (hora)
DESCASC
Temp. media en grados centígrados
DESCASC
Racha de viento máxima en m/sg (hora)
DESCASC
Velocidad máxima media en intervalos de 10 minutos(hora)
DESCASC
Precipitaciones diarias en mm
DESCASC
Precipitaciones de 00:00 a 06:00 en mm
DESCASC
Precipitaciones de 06:00 a 12:00 en mm
DESCASC
Precipitaciones de 12:00 a 18:00 en mm
DESCASC
Precipitaciones de 18:00 a 24:00 en mm
DESCASC
17-10-2019 16.4 (14:10) 11.5 (23:59) 13.9 10 (14:30) 5 (14:30) 5.8 5.2 0.6 0 0
16-10-2019 15.3 (14:20) 12.1 (03:50) 13.7 11.94 (15:00) 5 (05:40) 19.6 0.4 0.8 6.4 12
15-10-2019 13.8 (15:50) 7.8 (06:40) 10.8 10.28 (15:50) 4.44 (15:50) 1.2 0.8 0 0 0.4
14-10-2019 11.9 (15:50) 7.6 (22:50) 9.7 13.06 (17:00) 5.83 (14:10) 30.4 13.6 2.8 3.6 10.4
13-10-2019 17.4 (14:30) 11 (00:00) 14.2 14.17 (05:40) 5.56 (05:40) 35.2 0 1.4 16.2 17.6
12-10-2019 23.9 (16:00) 9 (00:00) 16.4 13.06 (17:30) 6.94 (17:30) 0 0 0 0 0
11-10-2019 26.6 (17:10) 5.6 (00:00) 16.1 11.67 (16:20) 5.56 (16:10) 0 0 0 0 0
10-10-2019 21.5 (16:40) 5.4 (00:00) 13.5 4.72 (16:10) 2.5 (17:30) 0.2 0 0.2 0 0
09-10-2019 19 (16:30) 7.4 (00:00) 13.2 4.17 (17:40) 1.94 (16:40) 0 0 0 0 0
08-10-2019 19.5 (11:40) 11.7 (00:00) 15.6 6.67 (11:50) 3.06 (11:30) 4.4 0 0 2.4 2
07-10-2019 25.4 (17:00) 8.5 (00:00) 16.9 3.61 (14:20) 1.67 (15:10) 0 0 0 0 0
06-10-2019 21.2 (17:10) 10 (00:00) 15.6 3.61 (13:10) 1.94 (12:10) 0.4 0.2 0.2 0 0
05-10-2019 21.5 (16:50) 9.6 (00:00) 15.6 5.83 (14:30) 2.78 (13:30) 0 0 0 0 0
04-10-2019 19.3 (17:50) 9.9 (00:00) 14.6 3.61 (02:00) 1.94 (01:50) 0.8 0.6 0.2 0 0
03-10-2019 20.9 (14:30) 5.5 (00:00) 13.2 7.78 (12:00) 3.89 (12:00) 0.4 0 0 0 0.4
02-10-2019 17.9 (17:20) 9.6 (00:00) 13.8 4.72 (01:30) 2.5 (01:30) 0.4 0 0.4 0 0
01-10-2019 22.1 (15:30) 13.3 (00:00) 17.7 10.56 (13:00) 6.11 (14:20) 0 0 0 0 0
30-09-2019 25.3 (16:20) 14.9 (00:00) 20.1 8.33 (16:40) 5 (17:40) 0 0 0 0 0
29-09-2019 20.2 (14:50) 11.8 (00:00) 16 10 (14:20) 5 (18:50) 0.2 0 0 0 0.2
28-09-2019 24.6 (18:10) 6 (00:00) 15.3 5.83 (15:20) 3.89 (13:10) 0 0 0 0 0
27-09-2019 20.2 (16:10) 12 (00:00) 16.1 7.78 (09:50) 3.61 (14:30) 0.4 0 0.2 0.2 0
26-09-2019 23.1 (17:00) 13 (00:00) 18.1 9.17 (17:30) 5.83 (15:10) 0 0 0 0 0
25-09-2019 19.2 (16:30) 12.3 (00:00) 15.8 8.06 (16:10) 4.72 (15:20) 0.2 0.2 0 0 0
24-09-2019 21.3 (16:10) 12.8 (00:00) 17 12.5 (16:20) 7.5 (16:20) 4.8 1.2 3.6 0 0
23-09-2019 18.1 (19:00) 12.4 (00:00) 15.3 11.39 (23:20) 5.28 (23:30) 2.2 0 0 2.2 0
22-09-2019 20.8 (16:20) 11.8 (00:00) 16.3 10.83 (15:20) 6.67 (15:30) 0.6 0.4 0.2 0 0
21-09-2019 21.1 (15:50) 13.2 (00:00) 17.2 11.11 (16:30) 5.28 (19:10) 10.2 0 0.8 1.8 7.6
20-09-2019 29.6 (16:30) 13.2 (00:00) 21.4 12.78 (18:00) 4.72 (18:10) 50.8 0 0 1.6 49.2

Gráficas

Temp. máximas Temp. mínimas Temp. medias Precipitaciones Rachas de viento máximas Velocidades máximas media en intervalos de 10 minutos

Datos horarios

Fecha y hora oficial Temperatura (ºC) Velocidad del viento (km/h) Dirección del viento Racha (km/h) Dirección de racha Precipitación (mm) Presión (hPa) Tendencia (hPa) Humedad (%)
2019-10-19 23:00:00 8.8 2 Nordeste 11 Noroeste 2.8 954.9 1.5 99
2019-10-19 22:00:00 8.9 4 Noroeste 11 Norte 1.8 954.5 1.4 98
2019-10-19 21:00:00 9.1 4 Norte 13 Norte 0.4 954.1 1.3 98
2019-10-19 20:00:00 9.5 5 Norte 14 Nordeste 0.4 953.4 0.9 98
2019-10-19 19:00:00 9.7 8 Nordeste 19 Nordeste 0 953.1 -0.2 98
2019-10-19 18:00:00 10.5 4 Nordeste 21 Nordeste 0 952.8 -0.8 95
2019-10-19 17:00:00 10.8 9 Nordeste 19 Nordeste 0.4 952.5 -1.8 95
2019-10-19 16:00:00 11.1 3 Este 13 Este 2.6 953.3 -1.4 96
2019-10-19 15:00:00 11.4 0 Calma 7 Norte 1.8 953.6 -1.5 97
2019-10-19 14:00:00 11.3 3 Norte 6 Este 2.2 954.3 -0.9 98
2019-10-19 13:00:00 11 2 Sudeste 4 Oeste 2.2 954.7 -0.6 96
2019-10-19 12:00:00 10.9 2 Norte 6 Noroeste 3.2 955.1 -0.2 96
2019-10-19 11:00:00 11.1 3 Noroeste 5 Noroeste 3.2 955.2 -0.4 97
2019-10-19 10:00:00 11.3 0 Calma 5 Noroeste 2.2 955.3 -0.7 97
2019-10-19 09:00:00 11.3 0 Calma 5 Noroeste 1 955.3 -0.9 97
2019-10-19 08:00:00 11.5 2 Sudoeste 4 Sur 0 955.6 -1 95
2019-10-19 07:00:00 11.4 3 Sudoeste 8 Sudoeste 0.2 956 -1.1 97
2019-10-19 06:00:00 11.3 4 Sudoeste 8 Sudoeste 0.2 956.2 -1.1 97
2019-10-19 05:00:00 11.8 4 Oeste 13 Oeste 0.4 956.6 -1 97
2019-10-19 04:00:00 11.9 6 Sudoeste 12 Sudoeste 2 957.1 -0.7 99
2019-10-19 03:00:00 12 8 Sudoeste 18 Sudoeste 1.2 957.3 -1.2 98
2019-10-19 02:00:00 12 9 Sudoeste 29 Oeste 2 957.6 -1.8 98
2019-10-19 01:00:00 12.1 10 Sur 25 Sur 1.2 957.8 -1.5 96
2019-10-19 00:00:00 12 9 Sudoeste 21 Sudoeste 2.6 958.5 -1.6 97
2019-10-18 23:00:00 12.2 10 Sudoeste 23 Sur 2.6 959.4 -0.6 97
2019-10-18 22:00:00 12.4 10 Sudoeste 21 Sudoeste 0.8 959.3 -1 95
2019-10-18 21:00:00 12.7 10 Sudoeste 21 Sudoeste 0.4 960.1 -0.7 93
2019-10-18 20:00:00 13.2 9 Sudoeste 22 Sudoeste 0.2 960 -1.5 90
2019-10-18 19:00:00 13.7 10 Sudoeste 20 Sudoeste 0 960.3 -2 84
2019-10-18 18:00:00 14.5 9 Sudoeste 21 Sudoeste 0 960.8 -2.2 82
2019-10-18 17:00:00 14.1 6 Sur 24 Sudoeste 0 961.5 -1.9 87
2019-10-18 16:00:00 13.6 10 Sudoeste 25 Sudoeste 0 962.3 -2 89
2019-10-18 15:00:00 13.5 11 Sudoeste 23 Sudoeste 0 963 -1.5 87
2019-10-18 14:00:00 13.8 11 Sudoeste 22 Sur 0 963.4 -1.1 83
2019-10-18 13:00:00 13 9 Sudoeste 26 Sudoeste 0 964.3 -0.2 87
2019-10-18 12:00:00 12.7 9 Sudoeste 20 Sudoeste 0 964.5 0.1 89
2019-10-18 11:00:00 12 10 Sudoeste 22 Sudoeste 0 964.5 0.3 91
2019-10-18 10:00:00 10.9 9 Sudoeste 22 Sudoeste 0 964.5 0.2 95
2019-10-18 09:00:00 10.7 7 Sudoeste 21 Sudoeste 0 964.4 -0.1 95
2019-10-18 08:00:00 11.1 9 Sur 24 Sur 0 964.2 -0.2 91
2019-10-18 07:00:00 10.7 7 Sudoeste 17 Sudoeste 0 964.3 -0.4 93
2019-10-18 06:00:00 10.6 8 Sudoeste 18 Sudoeste 0 964.5 0.3 95
2019-10-18 05:00:00 10.5 7 Sudoeste 23 Oeste 0.2 964.4 0 96
2019-10-18 04:00:00 10.9 10 Sudoeste 25 Sudoeste 0 964.7 0.2 95
2019-10-18 03:00:00 11.6 8 Sudoeste 22 Sudoeste 0 964.2 -0.6 85
2019-10-18 02:00:00 11.5 8 Sudoeste 21 Sudoeste 0 964.4 -0.2 88
2019-10-18 01:00:00 11.2 7 Sudoeste 18 Sur 0 964.5 0.3 88
2019-10-18 00:00:00 11.5 8 Sudoeste 20 Sudoeste 0 964.8 0.7 87
2019-10-17 23:00:00 11.7 6 Sudoeste 22 Sudoeste 0 964.6 0.9 87
2019-10-17 22:00:00 12.1 8 Sudoeste 15 Sudoeste 0 964.2 0.7 86
2019-10-17 21:00:00 12.4 8 Sudoeste 18 Oeste 0 964.1 0.6 83
2019-10-17 20:00:00 12.9 9 Sudoeste 17 Oeste 0 963.7 0.3 83
2019-10-17 19:00:00 13.7 6 Oeste 24 Oeste 0 963.5 0 85
2019-10-17 18:00:00 14.5 11 Oeste 30 Sudoeste 0 963.5 0 79
2019-10-17 17:00:00 15 14 Oeste 31 Oeste 0 963.4 -0.3 79
2019-10-17 16:00:00 15 15 Oeste 30 Oeste 0 963.5 -0.2 82
2019-10-17 15:00:00 16 15 Oeste 36 Sudoeste 0 963.5 -0.6 76
2019-10-17 14:00:00 16.2 12 Sudoeste 28 Oeste 0 963.7 -0.3 75
2019-10-17 13:00:00 15.4 12 Sudoeste 25 Sudoeste 0 963.7 0.2 78
2019-10-17 12:00:00 13.9 10 Sudoeste 21 Sudoeste 0 964.1 2.2 81
2019-10-17 11:00:00 13.8 9 Sudoeste 21 Sudoeste 0 964 2.7 86
2019-10-17 10:00:00 12.7 12 Oeste 23 Oeste 0 963.5 2.5 93
2019-10-17 09:00:00 13.5 10 Sudoeste 22 Sudoeste 0.4 961.9 0.9 97
2019-10-17 08:00:00 13.6 8 Sudoeste 19 Sudoeste 0.2 961.3 0.5 96
2019-10-17 07:00:00 13.1 4 Sudoeste 17 Sudoeste 0 961 0 96
2019-10-17 06:00:00 13.4 8 Sudoeste 21 Sur 0 961 -0.1 97
2019-10-17 05:00:00 13.5 8 Sudoeste 25 Sudoeste 0.4 960.8 0 97
2019-10-17 04:00:00 13.5 8 Sudoeste 22 Sudoeste 1.6 961 0.4 98
2019-10-17 03:00:00 13.6 8 Sudoeste 25 Sudoeste 1.8 961.1 0.4 99
2019-10-17 02:00:00 13.5 8 Sudoeste 35 Sur 0.8 960.8 0 98
2019-10-17 01:00:00 13.6 11 Sur 28 Sur 0.6 960.6 0 96
2019-10-17 00:00:00 13.5 8 Sur 23 Sur 0.4 960.7 0.2 96
2019-10-16 23:00:00 13.4 8 Sudoeste 28 Sur 1.4 960.8 1.1 96
2019-10-16 22:00:00 13.5 10 Sudoeste 35 Sudoeste 0.6 960.6 0.3 96
2019-10-16 21:00:00 13.5 13 Sudoeste 28 Sudoeste 0.4 960.5 0.4 95
2019-10-16 20:00:00 13.5 10 Sur 40 Sur 4.6 959.7 -0.7 95
2019-10-16 19:00:00 13.5 12 Sur 36 Sur 4.6 960.3 -0.1 95
2019-10-16 18:00:00 14 12 Sudoeste 32 Sur 2.4 960.1 -0.7 94
2019-10-16 17:00:00 13.8 10 Sur 34 Sudoeste 1.8 960.4 -0.7 95
2019-10-16 16:00:00 14.2 13 Sudoeste 39 Sur 2 960.4 -1.2 93
2019-10-16 15:00:00 14.3 18 Sudoeste 43 Sudoeste 0.2 960.8 -1.2 89
2019-10-16 14:00:00 14.9 17 Sudoeste 39 Sudoeste 0 961.1 -0.7 85
2019-10-16 13:00:00 14.9 17 Sudoeste 39 Sudoeste 0 961.6 -0.2 82
2019-10-16 12:00:00 14.1 14 Sudoeste 37 Sur 0 962 0.7 88
2019-10-16 11:00:00 13.5 14 Sudoeste 33 Sudoeste 0 961.8 -0.1 90
2019-10-16 10:00:00 13.1 14 Sur 37 Sudoeste 0 961.8 -0.3 87
2019-10-16 09:00:00 12.7 16 Sudoeste 39 Sur 0.2 961.3 -0.8 88
2019-10-16 08:00:00 12.4 12 Sudoeste 34 Sur 0 961.9 -0.4 91
2019-10-16 07:00:00 12.3 12 Sudoeste 34 Sudoeste 0.6 962.1 -0.4 93
2019-10-16 06:00:00 12.6 14 Sudoeste 37 Sudoeste 0 962.1 -1 89
2019-10-16 05:00:00 12.5 11 Sudoeste 29 Sudoeste 0 962.3 -1.2 86
2019-10-16 04:00:00 12.1 10 Sur 29 Sur 0.4 962.5 -1.3 88
2019-10-16 03:00:00 12.4 9 Sur 29 Sur 0 963.1 -1 84
2019-10-16 02:00:00 12.9 9 Sur 33 Sudoeste 0 963.5 -0.8 81
2019-10-16 01:00:00 12.8 13 Sur 35 Sudoeste 0 963.8 -0.4 83
2019-10-16 00:00:00 12.8 14 Sudoeste 37 Sudoeste 0 964.1 -0.4 84
2019-10-15 23:00:00 12.6 11 Sudoeste 33 Sudoeste 0 964.3 -0.2 84
2019-10-15 22:00:00 12.1 8 Sur 29 Sudoeste 0 964.2 -0.2 87
2019-10-15 21:00:00 11.8 10 Sudoeste 26 Sudoeste 0.2 964.5 -0.1 89
2019-10-15 20:00:00 11.9 10 Sudoeste 28 Sudoeste 0 964.5 -0.3 89
2019-10-15 19:00:00 12.5 9 Sur 36 Sudoeste 0.2 964.4 -0.7 84
2019-10-15 18:00:00 12.6 11 Sudoeste 31 Sur 0 964.6 -1 84
2019-10-15 17:00:00 13.1 12 Sudoeste 31 Sudoeste 0 964.8 -1.2 82
2019-10-15 16:00:00 13.7 13 Sudoeste 37 Sudoeste 0 965.1 -1.1 79
2019-10-15 15:00:00 13.2 13 Sudoeste 31 Sudoeste 0 965.6 -0.9 82
2019-10-15 14:00:00 12.8 10 Sur 30 Sur 0 966 -0.7 82
2019-10-15 13:00:00 12.9 12 Sur 31 Sudoeste 0 966.2 -0.2 82
2019-10-15 12:00:00 12.2 11 Sudoeste 30 Sudoeste 0 966.5 0.4 87
2019-10-15 11:00:00 10.1 8 Sudoeste 23 Sudoeste 0 966.7 0.7 91
2019-10-15 10:00:00 9.4 7 Sudoeste 19 Sur 0 966.4 0.4 93
2019-10-15 09:00:00 8.9 8 Sudoeste 23 Sudoeste 0 966.1 0.3 92
2019-10-15 08:00:00 8.3 8 Sur 19 Sudoeste 0 966 0.4 95
2019-10-15 07:00:00 7.8 7 Sur 18 Sudoeste 0 966 0.3 96
2019-10-15 06:00:00 7.9 6 Sudoeste 15 Sur 0 965.8 0.1 95
2019-10-15 05:00:00 8 7 Sudoeste 17 Sudoeste 0 965.6 0 96
2019-10-15 04:00:00 8.1 8 Sudoeste 17 Sudoeste 0 965.7 0.2 97
2019-10-15 03:00:00 8.4 9 Sudoeste 21 Sudoeste 0 965.7 0.6 96
2019-10-15 02:00:00 8.5 9 Sudoeste 19 Sudoeste 0 965.6 0.7 96
2019-10-15 01:00:00 8.5 9 Sudoeste 15 Sudoeste 0.8 965.5 1.4 96
2019-10-15 00:00:00 8.3 8 Sudoeste 23 Sudoeste 1.2 965.1 1.6 95
2019-10-14 23:00:00 7.6 9 Sudoeste 19 Noroeste 3.8 964.9 2.5 96
2019-10-14 22:00:00 8.7 8 Sudoeste 17 Sudoeste 0.2 964.1 2.4 95
2019-10-14 21:00:00 8.9 5 Oeste 23 Oeste 4.6 963.5 2.7 95
2019-10-14 20:00:00 9.4 9 Sudoeste 19 Sudoeste 0 962.4 1.9 92
2019-10-14 19:00:00 9.7 9 Sudoeste 26 Oeste 0.6 961.7 2.6 91
2019-10-14 18:00:00 10.9 12 Sudoeste 30 Oeste 0.4 960.8 2 83
2019-10-14 17:00:00 9.9 19 Oeste 47 Sudoeste 0.8 960.5 2.3 86
2019-10-14 16:00:00 11.8 13 Oeste 26 Oeste 0.4 959.1 1.6 84
2019-10-14 15:00:00 11.2 12 Oeste 34 Oeste 0.8 958.8 1.9 90
2019-10-14 14:00:00 11.4 14 Sudoeste 31 Sudoeste 1.2 958.2 1.8 90
2019-10-14 13:00:00 11.2 8 Sudoeste 22 Oeste 0 957.5 1.9 93
2019-10-14 12:00:00 10.5 7 Sur 30 Sur 0.4 956.9 2.3 94
2019-10-14 11:00:00 10.2 8 Sur 26 Sudoeste 1.8 956.4 2.4 95
2019-10-14 10:00:00 10.3 7 Sudoeste 27 Sur 0.6 955.6 0.7 92
2019-10-14 09:00:00 10.5 10 Sur 25 Sur 0 954.6 -0.8 87
2019-10-14 08:00:00 10.3 8 Sudoeste 22 Sudoeste 0 954 -1.8 91
2019-10-14 07:00:00 10.4 6 Sur 27 Sur 0 954.9 -1.6 93
2019-10-14 06:00:00 10.3 13 Sur 32 Sur 2.2 955.4 -1.8 96
2019-10-14 05:00:00 10.3 11 Sur 24 Sudoeste 1.6 955.8 -1.7 96
2019-10-14 04:00:00 10.4 5 Sur 18 Sudeste 2 956.5 -1.9 96
2019-10-14 03:00:00 10.5 5 Sur 13 Sudoeste 1.6 957.2 -1.3 96
2019-10-14 02:00:00 10.6 3 Sudeste 9 Sur 3 957.5 -1.5 97
2019-10-14 01:00:00 10.8 4 Sur 10 Sudeste 3.2 958.4 0.1 97
2019-10-14 00:00:00 11 5 Sudeste 9 Sudeste 1 958.5 0.4 97
2019-10-13 23:00:00 11.3 3 Norte 15 Noroeste 4.2 959 0.9 96
2019-10-13 22:00:00 12.1 5 Noroeste 18 Sudoeste 5.2 958.3 0 95
2019-10-13 21:00:00 14.4 3 Sudoeste 14 Sudoeste 3.2 958.1 -0.7 96
2019-10-13 20:00:00 14.6 4 Sudoeste 16 Sudoeste 2.4 958.1 -0.9 96
2019-10-13 19:00:00 14.9 5 Sudoeste 14 Sudoeste 1.6 958.3 -0.6 96
2019-10-13 18:00:00 14.9 9 Sudoeste 16 Sudoeste 2.6 958.8 -0.3 95
2019-10-13 17:00:00 15.4 2 Sudeste 5 Sudoeste 6 959 -0.5 95
2019-10-13 16:00:00 15.6 4 Oeste 11 Oeste 7 958.9 -0.9 92
2019-10-13 15:00:00 16.3 5 Sudoeste 14 Sur 0.6 959.1 -0.5 91
2019-10-13 14:00:00 17.1 5 Oeste 19 Oeste 0 959.5 0.5 81
2019-10-13 13:00:00 16.8 7 Oeste 23 Sudoeste 0 959.8 1.8 82
2019-10-13 12:00:00 16.1 10 Oeste 29 Sudoeste 0 959.6 2.8 88
2019-10-13 11:00:00 16 10 Sudoeste 34 Sudoeste 0 959 2.7 88
2019-10-13 10:00:00 15.1 13 Sudoeste 32 Sudoeste 0 958 2.8 90
2019-10-13 09:00:00 14.4 16 Sudoeste 40 Sudoeste 0.4 956.8 1.4 91
2019-10-13 08:00:00 14.7 14 Sudoeste 35 Sur 1 956.3 1.1 88
2019-10-13 07:00:00 16 13 Sudoeste 35 Sudoeste 0 955.2 -0.8 73
2019-10-13 06:00:00 16.5 18 Sudoeste 51 Sudoeste 0 955.4 -1 67
2019-10-13 05:00:00 16.3 16 Sudoeste 40 Sur 0 955.2 -1.7 67
2019-10-13 04:00:00 15.9 14 Sudoeste 35 Sudoeste 0 956 -1.9 68
2019-10-13 03:00:00 15.9 14 Sudoeste 36 Sur 0 956.4 -1.8 68
2019-10-13 02:00:00 15.6 12 Sur 32 Sur 0 956.9 -1.5 72
2019-10-13 01:00:00 14.8 8 Sur 20 Sur 0 957.9 -0.6 77
2019-10-13 00:00:00 15.1 6 Sudoeste 20 Sudoeste 0 958.2 -0.2 77
2019-10-12 23:00:00 16 9 Sudoeste 39 Sudoeste 0 958.4 0.3 74
2019-10-12 22:00:00 17.3 13 Sudoeste 28 Sudoeste 0 958.5 0.9 71
2019-10-12 21:00:00 17.9 9 Sudoeste 29 Sudoeste 0 958.4 0.9 69
2019-10-12 20:00:00 19.3 19 Sudoeste 41 Sudoeste 0 958.1 0.5 63
2019-10-12 19:00:00 21.1 20 Oeste 43 Sudoeste 0 957.6 -0.5 56
2019-10-12 18:00:00 23.2 20 Sudoeste 47 Oeste 0 957.5 -1.3 49
2019-10-12 17:00:00 23.7 22 Sudoeste 45 Sudoeste 0 957.6 -1.9 48
2019-10-12 16:00:00 23.7 24 Sudoeste 44 Sudoeste 0 958.1 -1.9 48
2019-10-12 15:00:00 22.5 20 Sudoeste 40 Oeste 0 958.8 -1.7 55
2019-10-12 14:00:00 21.5 14 Sudoeste 40 Sudoeste 0 959.5 -1.4 59
2019-10-12 13:00:00 19.6 15 Sudoeste 36 Sudoeste 0 960 -0.7 67
2019-10-12 12:00:00 18.1 12 Sudoeste 26 Sudoeste 0 960.5 0.3 73
2019-10-12 11:00:00 15.7 9 Sudoeste 23 Sudoeste 0 960.9 0.7 83
2019-10-12 10:00:00 13.5 3 Oeste 17 Sudoeste 0 960.7 0.1 93
2019-10-12 09:00:00 10.9 6 Sudoeste 12 Sudoeste 0 960.2 -0.6 100
2019-10-12 08:00:00 10.1 3 Oeste 16 Sudoeste 0 960.2 -1.2 96
2019-10-12 07:00:00 9.2 2 Sudoeste 7 Sudeste 0 960.6 -1.3 98
2019-10-12 06:00:00 10.1 3 Sur 7 Sudeste 0 960.8 -1.4 99
2019-10-12 05:00:00 10.6 3 Oeste 5 Sudeste 0 961.4 -0.7 100
2019-10-12 04:00:00 10.2 2 Sudoeste 5 Sudeste 0 961.9 -1 99
2019-10-12 03:00:00 9.5 3 Sur 6 Noroeste 0 962.2 -1 96
2019-10-12 02:00:00 10.4 2 Oeste 6 Sudeste 0 962.1 -1 92
2019-10-12 01:00:00 11.1 4 Sur 9 Sudeste 0 962.9 -0.1 94
2019-10-12 00:00:00 12.2 3 Sudeste 5 Sur 0 963.2 0.4 90
2019-10-11 23:00:00 13.2 3 Sur 8 Sudeste 0 963.1 0.5 88
2019-10-11 22:00:00 14.6 3 Sur 12 Sudeste 0 963 0.3 83
2019-10-11 21:00:00 17 3 Sudeste 7 Sudeste 0 962.8 0.1 75
2019-10-11 20:00:00 20.8 3 Sudoeste 17 Oeste 0 962.6 -0.2 59
2019-10-11 19:00:00 23.8 10 Oeste 34 Oeste 0 962.7 -0.4 46
2019-10-11 18:00:00 25.8 15 Oeste 37 Sudoeste 0 962.7 -1.1 38
2019-10-11 17:00:00 26.5 13 Sudoeste 42 Sudoeste 0 962.8 -1.9 37
2019-10-11 16:00:00 26.3 19 Sudoeste 41 Sudoeste 0 963.1 -2.3 31
2019-10-11 15:00:00 25.1 14 Sudoeste 34 Sudoeste 0 963.8 -2.3 36
2019-10-11 14:00:00 23.3 11 Sudoeste 21 Sudoeste 0 964.7 -1.9 43
2019-10-11 13:00:00 16.9 4 Norte 7 Nordeste 0 965.4 -0.9 76
2019-10-11 12:00:00 10.1 3 Nordeste 6 Noroeste 0 966.1 0 96
2019-10-11 11:00:00 7.9 3 Noroeste 6 Norte 0 966.6 0.7 98
2019-10-11 10:00:00 6.4 0 Calma 4 Sudoeste 0 966.3 0.6 100
2019-10-11 09:00:00 6.1 0 Calma 3 Noroeste 0 966.1 0.1 100
2019-10-11 08:00:00 5.6 2 Norte 6 Sudeste 0 965.9 -0.1 97
2019-10-11 07:00:00 6.7 2 Sur 5 Sur 0 965.7 -0.6 100
2019-10-11 06:00:00 6.3 3 Sudoeste 6 Oeste 0 966 -0.8 100
2019-10-11 05:00:00 6.5 2 Norte 4 Sur 0 966 -0.9 97
2019-10-11 04:00:00 6.7 3 Sur 5 Sudeste 0 966.3 -1.2 97
2019-10-11 03:00:00 7.1 0 Calma 4 Sur 0 966.8 -1 95
2019-10-11 02:00:00 7.8 0 Calma 6 Sudeste 0 966.9 -0.9 94
2019-10-11 01:00:00 8.2 0 Calma 5 Sur 0 967.5 -0.3 94
2019-10-11 00:00:00 9 2 Sudoeste 5 Sur 0 967.8 0.3 92
2019-10-10 23:00:00 10 0 Calma 9 Sudeste 0 967.8 0.3 93
2019-10-10 22:00:00 11.2 3 Sur 4 Sur 0 967.8 0.5 91
2019-10-10 21:00:00 13.2 0 Calma 10 Nordeste 0 967.5 0 83
2019-10-10 20:00:00 15.3 4 Nordeste 12 Nordeste 0 967.5 -0.5 76
2019-10-10 19:00:00 17.9 4 Nordeste 12 Norte 0 967.3 -1.1 68
2019-10-10 18:00:00 20 5 Nordeste 15 Nordeste 0 967.5 -1.8 61
2019-10-10 17:00:00 21.1 5 Norte 17 Nordeste 0 968 -2 57
2019-10-10 16:00:00 20.8 6 Nordeste 17 Este 0 968.4 -2.4 54
2019-10-10 15:00:00 19.3 6 Noroeste 14 Noroeste 0 969.3 -2 61
2019-10-10 14:00:00 17.4 4 Norte 11 Norte 0 970 -1.7 70
2019-10-10 13:00:00 13.4 3 Norte 9 Nordeste 0 970.8 -0.8 84
2019-10-10 12:00:00 9.8 3 Noroeste 6 Noroeste 0 971.3 0.3 95
2019-10-10 11:00:00 7.6 4 Noroeste 8 Noroeste 0 971.7 0.8 99
2019-10-10 10:00:00 6.2 0 Calma 4 Oeste 0 971.6 0.9 98
2019-10-10 09:00:00 6.1 0 Calma 4 Sur 0.2 971 0.3 99
2019-10-10 08:00:00 5.7 3 Este 4 Este 0 970.9 -0.3 100
2019-10-10 07:00:00 5.5 0 Calma 6 Sur 0 970.7 -0.7 98
2019-10-10 06:00:00 6.4 0 Calma 5 Este 0 970.7 -0.7 99
2019-10-10 05:00:00 6.1 0 Calma 3 Sur 0 971.2 -0.4 100
2019-10-10 04:00:00 5.7 2 Oeste 4 Sur 0 971.4 -0.4 96
2019-10-10 03:00:00 6.4 3 Sur 5 Sur 0 971.4 -0.7 94
2019-10-10 02:00:00 7.1 0 Calma 7 Sur 0 971.6 -0.2 94
2019-10-10 01:00:00 8.1 3 Sudeste 8 Sudeste 0 971.8 0.2 93
2019-10-10 00:00:00 9 3 Sudeste 6 Sudeste 0 972.1 0.7 93
2019-10-09 23:00:00 10.2 0 Calma 5 Oeste 0 971.8 0.6 90
2019-10-09 22:00:00 11.4 3 Oeste 5 Oeste 0 971.6 0.8 89
2019-10-09 21:00:00 11.6 2 Oeste 5 Noroeste 0 971.4 0.9 84
2019-10-09 20:00:00 14.3 3 Noroeste 13 Norte 0 971.2 0.3 74
2019-10-09 19:00:00 16 6 Norte 14 Noroeste 0 970.8 -0.3 63
2019-10-09 18:00:00 17.9 4 Noroeste 15 Noroeste 0 970.5 -0.8 56
2019-10-09 17:00:00 17.6 7 Nordeste 14 Nordeste 0 970.9 -0.7 57
2019-10-09 16:00:00 18 4 Nordeste 13 Norte 0 971.1 -0.9 54
2019-10-09 15:00:00 16.6 4 Nordeste 12 Norte 0 971.3 -0.8 58
2019-10-09 14:00:00 16.2 5 Nordeste 13 Nordeste 0 971.6 -0.5 69
2019-10-09 13:00:00 14.2 5 Noroeste 13 Noroeste 0 972 0.3 77
2019-10-09 12:00:00 13.8 4 Oeste 10 Oeste 0 972.1 1 79
2019-10-09 11:00:00 12.7 3 Norte 7 Noroeste 0 972.1 1.6 93
2019-10-09 10:00:00 9.8 2 Oeste 5 Sudeste 0 971.7 1.2 98
2019-10-09 09:00:00 7.6 0 Calma 6 Sur 0 971.1 0.5 99
2019-10-09 08:00:00 7.8 4 Sudeste 9 Sudeste 0 970.5 0.2 98
2019-10-09 07:00:00 7.7 3 Sur 6 Sudeste 0 970.5 0.2 97
2019-10-09 06:00:00 8.3 2 Sur 6 Sudeste 0 970.6 0.1 100
2019-10-09 05:00:00 7.7 2 Sur 7 Sudeste 0 970.3 0.1 99
2019-10-09 04:00:00 8 4 Sudeste 6 Sudeste 0 970.3 0 98
2019-10-09 03:00:00 8.7 3 Sur 5 Sudeste 0 970.5 0.2 95
2019-10-09 02:00:00 9.6 4 Sur 5 Sur 0 970.2 -0.2 97
2019-10-09 01:00:00 10.3 3 Sur 5 Sur 0 970.3 0.3 96
2019-10-09 00:00:00 11.7 0 Calma 6 Norte 0 970.3 0.6 95
2019-10-08 23:00:00 12.3 3 Norte 9 Noroeste 0 970.4 1.1 94
2019-10-08 22:00:00 13.1 4 Noroeste 9 Norte 0 970 1 92
2019-10-08 21:00:00 13.8 2 Nordeste 6 Nordeste 0 969.7 1.2 96
2019-10-08 20:00:00 14 2 Nordeste 11 Norte 0.6 969.3 0.8 96
2019-10-08 19:00:00 14.7 4 Norte 15 Noroeste 1.4 969 0.4 96
2019-10-08 18:00:00 16 3 Norte 18 Norte 0 968.5 -0.2 91
2019-10-08 17:00:00 16.3 7 Noroeste 19 Norte 0 968.5 0 88
2019-10-08 16:00:00 16.7 5 Noroeste 15 Norte 0 968.6 0.4 91
2019-10-08 15:00:00 16.5 6 Noroeste 18 Noroeste 0.4 968.7 0.7 95
2019-10-08 14:00:00 16.8 8 Noroeste 22 Noroeste 1.8 968.5 0.8 96
2019-10-08 13:00:00 18.8 10 Sudoeste 21 Oeste 0.2 968.2 0.7 94
2019-10-08 12:00:00 19.1 8 Sudoeste 24 Sudoeste 0 968 0.8 87
2019-10-08 11:00:00 19.1 9 Sudoeste 18 Sur 0 967.7 0.3 82
2019-10-08 10:00:00 17.6 6 Sur 22 Sur 0 967.5 0 89
2019-10-08 09:00:00 16.8 7 Sur 18 Sudoeste 0 967.2 -0.3 92
2019-10-08 08:00:00 17.4 8 Sudoeste 19 Sudoeste 0 967.4 -0.3 91
2019-10-08 07:00:00 17.3 6 Sudoeste 16 Sudoeste 0 967.5 -0.7 92
2019-10-08 06:00:00 17.4 5 Sudoeste 14 Sudoeste 0 967.5 -0.9 92
2019-10-08 05:00:00 17.3 7 Sudoeste 15 Sudoeste 0 967.7 -1.1 92
2019-10-08 04:00:00 16.9 3 Sudoeste 10 Oeste 0 968.2 -0.9 93
2019-10-08 03:00:00 15.6 3 Sur 6 Sudoeste 0 968.4 -1 97
2019-10-08 02:00:00 14.7 3 Sudeste 6 Sudeste 0 968.8 -0.7 96
2019-10-08 01:00:00 14.6 3 Sur 7 Sudeste 0 969.1 0 94
2019-10-08 00:00:00 15.1 4 Sudeste 8 Sur 0 969.4 0.5 94
2019-10-07 23:00:00 15.3 5 Sudeste 8 Sudeste 0 969.5 0.6 93
2019-10-07 22:00:00 16.3 4 Sudeste 7 Sudeste 0 969.1 0.4 90
2019-10-07 21:00:00 18.5 3 Sur 8 Noroeste 0 968.9 0.2 81
2019-10-07 20:00:00 20.9 4 Noroeste 9 Noroeste 0 968.9 -0.1 73
2019-10-07 19:00:00 22.9 2 Nordeste 10 Nordeste 0 968.7 -0.5 60
2019-10-07 18:00:00 24.5 4 Nordeste 12 Noroeste 0 968.7 -1 52
2019-10-07 17:00:00 25.1 4 Norte 11 Noroeste 0 969 -1.2 45
2019-10-07 16:00:00 24.7 4 Oeste 13 Noroeste 0 969.2 -1.1 40
2019-10-07 15:00:00 23.6 6 Oeste 13 Oeste 0 969.7 -0.8 29
2019-10-07 14:00:00 21.2 4 Norte 11 Noroeste 0 970.2 -0.6 63
2019-10-07 13:00:00 18.4 3 Noroeste 10 Nordeste 0 970.3 -0.3 75
2019-10-07 12:00:00 15.8 5 Norte 10 Norte 0 970.5 -0.1 85
2019-10-07 11:00:00 13 3 Norte 6 Norte 0 970.8 0.3 88
2019-10-07 10:00:00 10 0 Calma 8 Sudeste 0 970.6 0.9 97
2019-10-07 09:00:00 8.7 0 Calma 9 Sudeste 0 970.6 1.1 100
2019-10-07 08:00:00 8.8 3 Sudeste 6 Sudeste 0 970.5 1 100
2019-10-07 07:00:00 9 2 Sudoeste 5 Sudeste 0 969.7 -0.4 98
2019-10-07 06:00:00 8.9 3 Sudeste 5 Sudeste 0 969.5 -0.8 98
2019-10-07 05:00:00 9.8 2 Sudeste 5 Este 0 969.5 -0.9 100
2019-10-07 04:00:00 9.4 3 Sudeste 6 Sudeste 0 970.1 -0.9 100
2019-10-07 03:00:00 9.3 0 Calma 3 Sudoeste 0 970.3 -0.7 94
2019-10-07 02:00:00 10.6 0 Calma 5 Sur 0 970.4 -0.6 93
2019-10-07 01:00:00 11 2 Sur 7 Sudeste 0 971 -0.4 97
2019-10-07 00:00:00 11.2 3 Sur 4 Sudeste 0 971 0 90
2019-10-06 23:00:00 12.2 3 Sudoeste 5 Sudoeste 0 971 0.4 90
2019-10-06 22:00:00 13.3 0 Calma 7 Norte 0 971.4 1.1 91
2019-10-06 21:00:00 14.5 2 Sudoeste 3 Sudeste 0 971 0.9 85
2019-10-06 20:00:00 16.9 3 Nordeste 11 Este 0 970.6 0.3 78
2019-10-06 19:00:00 19.6 2 Nordeste 6 Este 0 970.3 -0.2 60
2019-10-06 18:00:00 20.9 4 Nordeste 11 Norte 0 970.1 -1.2 52
2019-10-06 17:00:00 21.1 4 Norte 12 Noroeste 0 970.3 -1.2 52
2019-10-06 16:00:00 19.5 3 Este 11 Nordeste 0 970.5 -1.1 61
2019-10-06 15:00:00 18.1 6 Nordeste 13 Nordeste 0 971.3 0 75
2019-10-06 14:00:00 16.1 3 Sudeste 13 Noroeste 0 971.5 0.3 88
2019-10-06 13:00:00 16.2 6 Noroeste 12 Oeste 0 971.6 0.6 90
2019-10-06 12:00:00 15.7 5 Sudoeste 11 Oeste 0 971.3 1 91
2019-10-06 11:00:00 14.1 0 Calma 8 Nordeste 0 971.2 1.4 96
2019-10-06 10:00:00 13.3 0 Calma 5 Norte 0.2 971 1.7 97
2019-10-06 09:00:00 12.8 2 Nordeste 4 Sudeste 0 970.3 0.7 98
2019-10-06 08:00:00 12.7 3 Norte 5 Noroeste 0 969.8 0.5 97
2019-10-06 07:00:00 12.7 2 Noroeste 4 Noroeste 0 969.3 0 97
2019-10-06 06:00:00 12.4 0 Calma 3 Sudeste 0.2 969.6 0 97
2019-10-06 05:00:00 12.5 0 Calma 8 Norte 0 969.3 -0.3 94
2019-10-06 04:00:00 13.1 4 Oeste 8 Sudoeste 0 969.3 -0.7 92
2019-10-06 03:00:00 12.9 0 Calma 4 Oeste 0 969.6 -0.4 94
2019-10-06 02:00:00 11.9 3 Sudeste 8 Sudeste 0 969.6 0.1 96
2019-10-06 01:00:00 10.6 3 Sudeste 6 Sur 0 970 0.5 97
2019-10-06 00:00:00 10.3 3 Sudoeste 10 Sudeste 0 970 1.1 94
2019-10-05 23:00:00 10.9 4 Sudeste 10 Sudeste 0 969.5 1.7 92
2019-10-05 22:00:00 11.9 4 Sudeste 9 Sudeste 0 969.5 1.4 90
2019-10-05 21:00:00 13.8 3 Sudeste 6 Sudeste 0 968.9 1.7 83
2019-10-05 20:00:00 16.4 2 Noroeste 10 Noroeste 0 967.8 0.9 72
2019-10-05 19:00:00 18.1 4 Noroeste 16 Noroeste 0 968.1 1 65
2019-10-05 18:00:00 19.6 6 Noroeste 16 Noroeste 0 967.2 -0.1 58
2019-10-05 17:00:00 21.2 6 Noroeste 20 Oeste 0 966.9 -1 56
2019-10-05 16:00:00 19.9 8 Oeste 20 Sudoeste 0 967.1 -0.8 58
2019-10-05 15:00:00 19.2 7 Sudoeste 21 Oeste 0 967.3 -0.9 61
2019-10-05 14:00:00 17.3 8 Sudoeste 18 Sudoeste 0 967.9 0 71
2019-10-05 13:00:00 15.3 5 Sudoeste 11 Oeste 0 967.9 0.3 80
2019-10-05 12:00:00 13.6 5 Oeste 9 Sudoeste 0 968.2 1.4 90
2019-10-05 11:00:00 12.2 0 Calma 4 Este 0 967.9 1.7 95
2019-10-05 10:00:00 11.4 0 Calma 2 Este 0 967.6 1.4 98
2019-10-05 09:00:00 11.1 0 Calma 5 Norte 0 966.8 0.8 97
2019-10-05 08:00:00 11.3 0 Calma 3 Oeste 0 966.2 -0.4 96
2019-10-05 07:00:00 11.2 0 Calma 3 Noroeste 0 966.2 -0.7 97
2019-10-05 06:00:00 11.1 0 Calma 7 Sudoeste 0 966 -1.3 98
2019-10-05 05:00:00 11.1 2 Sudoeste 5 Sudoeste 0 966.6 -0.7 99
2019-10-05 04:00:00 11.4 2 Oeste 5 Noroeste 0 966.9 -0.3 97
2019-10-05 03:00:00 11.4 2 Noroeste 5 Noroeste 0 967.3 0 98
2019-10-05 02:00:00 11.2 0 Calma 5 Sudeste 0 967.3 0.1 99
2019-10-05 01:00:00 10.1 2 Sudeste 3 Sudeste 0 967.2 0 98
2019-10-05 00:00:00 9.9 3 Sur 5 Sudeste 0 967.3 0.2 97
2019-10-04 23:00:00 10.5 2 Sur 4 Oeste 0 967.2 0.2 92
2019-10-04 22:00:00 11.7 2 Sur 8 Sur 0 967.2 0.4 92
2019-10-04 21:00:00 13.4 4 Sudeste 8 Sudeste 0 967.1 0.4 88
2019-10-04 20:00:00 16.2 2 Sudoeste 8 Norte 0 967 -0.2 80
2019-10-04 19:00:00 18.2 2 Nordeste 8 Norte 0 966.8 -0.8 71
2019-10-04 18:00:00 19.2 4 Norte 9 Nordeste 0 966.7 -1.3 67
2019-10-04 17:00:00 18.1 4 Nordeste 11 Norte 0 967.2 -1.1 73
2019-10-04 16:00:00 18 4 Nordeste 10 Este 0 967.6 -0.6 73
2019-10-04 15:00:00 17 4 Nordeste 12 Nordeste 0 968 -0.7 81
2019-10-04 14:00:00 16.5 3 Norte 10 Norte 0 968.3 -0.5 84
2019-10-04 13:00:00 16 4 Noroeste 9 Noroeste 0 968.2 -0.3 83
2019-10-04 12:00:00 15.5 4 Este 9 Nordeste 0 968.7 0.6 89
2019-10-04 11:00:00 15.4 2 Este 5 Este 0 968.8 1 85
2019-10-04 10:00:00 14.6 0 Calma 4 Sur 0 968.5 0.9 94
2019-10-04 09:00:00 14.4 2 Sudoeste 6 Oeste 0.2 968.1 0.4 95
2019-10-04 08:00:00 14.2 2 Sudeste 4 Sur 0 967.8 0.1 96
2019-10-04 07:00:00 14.3 0 Calma 8 Noroeste 0 967.6 0.3 95
2019-10-04 06:00:00 14.7 3 Noroeste 9 Norte 0.2 967.7 0 96
2019-10-04 05:00:00 15 4 Noroeste 13 Norte 0.4 967.7 -0.2 96
2019-10-04 04:00:00 16.2 4 Noroeste 10 Norte 0 967.3 -1 96
2019-10-04 03:00:00 16.5 5 Oeste 12 Sudoeste 0 967.7 -0.8 96
2019-10-04 02:00:00 16.6 7 Sudoeste 13 Sudoeste 0 967.9 -0.9 96
2019-10-04 01:00:00 17 2 Sur 7 Sudoeste 0 968.3 -0.2 95
2019-10-04 00:00:00 16.8 3 Sur 8 Sudoeste 0.2 968.5 0.2 96
2019-10-03 23:00:00 16.8 5 Oeste 11 Sudoeste 0 968.8 0.8 96
2019-10-03 22:00:00 17.2 5 Sudoeste 12 Sudoeste 0 968.5 0.4 93
2019-10-03 21:00:00 17.8 3 Sur 9 Sur 0.2 968.3 0.3 90
2019-10-03 20:00:00 18 2 Sudoeste 11 Oeste 0 968 -0.2 89
2019-10-03 19:00:00 18.4 10 Sudoeste 19 Sudoeste 0 968.1 -0.3 86
2019-10-03 18:00:00 19.6 8 Sudoeste 17 Sudoeste 0 968 -0.3 76
2019-10-03 17:00:00 19.8 12 Sudoeste 21 Sudoeste 0 968.2 -0.8 74
2019-10-03 16:00:00 19.8 8 Sudoeste 21 Oeste 0 968.4 -1 69
2019-10-03 15:00:00 20.6 10 Sudoeste 22 Sur 0 968.3 -1.3 67
2019-10-03 14:00:00 19.1 9 Sudoeste 20 Sudoeste 0 969 -0.2 69
2019-10-03 13:00:00 17.3 9 Sudoeste 22 Sudoeste 0 969.4 0.5 68
2019-10-03 12:00:00 16.7 14 Sudoeste 28 Sudoeste 0 969.6 0.9 69
2019-10-03 11:00:00 11.9 3 Nordeste 6 Nordeste 0 969.2 1 96
2019-10-03 10:00:00 7.9 3 Este 9 Sudeste 0 968.9 0.5 100
2019-10-03 09:00:00 5.7 5 Sudeste 9 Sudeste 0 968.7 0.1 99
2019-10-03 08:00:00 6.3 0 Calma 3 Sudeste 0 968.2 -0.4 96
2019-10-03 07:00:00 6.9 3 Sudeste 6 Sudeste 0 968.4 -0.1 99
2019-10-03 06:00:00 7.1 0 Calma 5 Sur 0 968.6 -0.1 98
2019-10-03 05:00:00 7 3 Sur 11 Sudoeste 0 968.6 -0.3 99
2019-10-03 04:00:00 7 2 Oeste 6 Oeste 0 968.5 -0.5 92
2019-10-03 03:00:00 8.1 3 Sudoeste 5 Sudeste 0 968.7 -0.6 95
2019-10-03 02:00:00 8.9 0 Calma 4 Sudoeste 0 968.9 -1 98
2019-10-03 01:00:00 9.1 2 Sur 5 Sudeste 0 969 -1.1 93
2019-10-03 00:00:00 9.6 4 Oeste 5 Oeste 0 969.3 -0.7 95
2019-10-02 23:00:00 10.8 0 Calma 3 Sur 0 969.9 0.1 89
2019-10-02 22:00:00 12.1 0 Calma 9 Nordeste 0 970.1 0.5 90
2019-10-02 21:00:00 13.4 4 Este 8 Este 0 970 0.3 89
2019-10-02 20:00:00 15.2 2 Nordeste 7 Nordeste 0 969.8 -0.1 83
2019-10-02 19:00:00 17 3 Nordeste 9 Nordeste 0 969.6 -0.4 73
2019-10-02 18:00:00 17.8 2 Norte 11 Noroeste 0 969.7 -0.4 69
2019-10-02 17:00:00 17.7 3 Noroeste 10 Norte 0 969.9 -0.4 68
2019-10-02 16:00:00 17 5 Norte 12 Noroeste 0 970 -0.5 71
2019-10-02 15:00:00 17.2 4 Este 9 Nordeste 0 970.1 -0.3 69
2019-10-02 14:00:00 16.7 4 Sudoeste 8 Oeste 0 970.3 -0.1 69
2019-10-02 13:00:00 15.6 2 Noroeste 11 Norte 0 970.5 0.9 75
2019-10-02 12:00:00 15.2 5 Oeste 12 Sudoeste 0 970.4 1.8 80
2019-10-02 11:00:00 13.6 4 Sudoeste 10 Oeste 0.2 970.4 2.1 93
2019-10-02 10:00:00 13.1 2 Sur 5 Oeste 0 969.6 1.6 93
2019-10-02 09:00:00 12.6 3 Sudoeste 10 Sudoeste 0.2 968.6 0.5 93
2019-10-02 08:00:00 12.7 3 Sudoeste 7 Sudoeste 0 968.3 0 89
2019-10-02 07:00:00 12.7 4 Sudoeste 9 Sur 0 968 -0.5 90
2019-10-02 06:00:00 12.8 3 Sur 11 Sudoeste 0 968.1 -0.4 88
2019-10-02 05:00:00 12.9 3 Sudoeste 12 Oeste 0 968.3 -0.3 87
2019-10-02 04:00:00 13 5 Sudoeste 12 Sudoeste 0 968.5 0.1 85
2019-10-02 03:00:00 12.9 8 Sudoeste 14 Sur 0 968.5 0 87
2019-10-02 02:00:00 13.2 8 Sudoeste 17 Sudoeste 0 968.6 0.2 86
2019-10-02 01:00:00 13.1 6 Sudoeste 11 Sudoeste 0 968.4 0.8 86
2019-10-02 00:00:00 13.3 6 Sudoeste 18 Oeste 0 968.5 1.6 85
2019-10-01 23:00:00 13.6 7 Oeste 16 Oeste 0 968.4 1.9 85
2019-10-01 22:00:00 13.9 7 Oeste 16 Oeste 0 967.6 1.9 86
2019-10-01 21:00:00 15.2 8 Oeste 17 Noroeste 0 966.9 1.8 78
2019-10-01 20:00:00 16.2 9 Noroeste 22 Noroeste 0 966.5 1.7 76
2019-10-01 19:00:00 18.2 12 Noroeste 28 Sudoeste 0 965.7 0.7 70
2019-10-01 18:00:00 20.4 13 Oeste 31 Sudoeste 0 965.1 0.1 56
2019-10-01 17:00:00 21.4 13 Oeste 34 Oeste 0 964.8 -0.2 52
2019-10-01 16:00:00 21.1 17 Oeste 38 Oeste 0 965 -0.4 50
2019-10-01 15:00:00 20.9 17 Oeste 36 Oeste 0 965 -0.4 52
2019-10-01 14:00:00 21.2 17 Oeste 38 Sudoeste 0 965 -0.1 57
2019-10-01 13:00:00 20.2 20 Oeste 38 Sudoeste 0 965.4 1 60
2019-10-01 12:00:00 18.7 18 Oeste 32 Oeste 0 965.4 1.5 70
2019-10-01 11:00:00 17.9 16 Oeste 24 Oeste 0 965.1 1.7 76
2019-10-01 10:00:00 15.9 11 Sudoeste 21 Sudoeste 0 964.4 1.2 88
2019-10-01 09:00:00 15.2 7 Sudoeste 15 Sudoeste 0 963.9 0.8 92
2019-10-01 08:00:00 15.3 8 Sudoeste 18 Sudoeste 0 963.4 0.8 93
2019-10-01 07:00:00 15.2 7 Sudoeste 23 Sudoeste 0 963.2 -0.1 92
2019-10-01 06:00:00 15.2 10 Sudoeste 25 Sudoeste 0 963.1 -0.9 92
2019-10-01 05:00:00 16.1 8 Sur 27 Oeste 0 962.6 -1.5 82
2019-10-01 04:00:00 16.1 9 Sudoeste 25 Sur 0 963.3 -1.2 83
2019-10-01 03:00:00 15.5 9 Sudoeste 21 Sur 0 964 -0.4 86
2019-10-01 02:00:00 15.3 9 Sudoeste 16 Sur 0 964.1 -0.2 90
2019-10-01 01:00:00 15.5 3 Sudoeste 14 Sudoeste 0 964.5 0.1 92
2019-10-01 00:00:00 15.1 6 Sudoeste 11 Sudoeste 0 964.4 0.4 95
2019-09-30 23:00:00 14.9 4 Sur 7 Sudeste 0 964.3 0.4 92
2019-09-30 22:00:00 16.8 4 Sudoeste 15 Sudoeste 0 964.4 0.7 86
2019-09-30 21:00:00 17.8 4 Sudoeste 18 Oeste 0 964 0.5 80
2019-09-30 20:00:00 19.6 15 Oeste 30 Sudoeste 0 963.9 0.1 73
2019-09-30 19:00:00 22.6 13 Oeste 27 Oeste 0 963.7 -0.5 67
2019-09-30 18:00:00 24.9 14 Oeste 28 Oeste 0 963.5 -1.2 54
2019-09-30 17:00:00 25 14 Sudoeste 30 Oeste 0 963.8 -1.6 56
2019-09-30 16:00:00 25.1 13 Sudoeste 28 Oeste 0 964.2 -1.6 54
2019-09-30 15:00:00 23.3 16 Sudoeste 28 Sudoeste 0 964.7 -1.4 62
2019-09-30 14:00:00 22.8 9 Sudoeste 20 Sudoeste 0 965.4 -0.8 69
2019-09-30 13:00:00 21 8 Sudoeste 23 Sudoeste 0 965.8 -0.3 77
2019-09-30 12:00:00 20.5 8 Sudoeste 23 Sudoeste 0 966.1 0.2 81
2019-09-30 11:00:00 20.5 13 Sudoeste 25 Sudoeste 0 966.2 0.2 82
2019-09-30 10:00:00 19.2 8 Sudoeste 20 Sudoeste 0 966.1 0.3 86
2019-09-30 09:00:00 17.7 6 Sudoeste 18 Sudoeste 0 965.9 0.2 94
2019-09-30 08:00:00 17.6 5 Sudoeste 12 Sudoeste 0 966 0 95
2019-09-30 07:00:00 17.7 2 Sudoeste 9 Oeste 0 965.8 -0.7 94
2019-09-30 06:00:00 17.5 4 Sur 8 Sudoeste 0 965.7 -1.2 94
2019-09-30 05:00:00 17.4 3 Sudoeste 18 Sudoeste 0 966 -1.1 94
2019-09-30 04:00:00 17.5 7 Sur 17 Sudoeste 0 966.5 -0.9 94
2019-09-30 03:00:00 17.5 5 Sudoeste 19 Sudoeste 0 966.9 -0.8 94
2019-09-30 02:00:00 17.7 7 Sur 16 Sur 0 967.1 -0.9 94
2019-09-30 01:00:00 17.5 5 Sur 17 Sudoeste 0 967.4 0 95
2019-09-30 00:00:00 17.4 5 Sur 16 Sudoeste 0 967.7 0.7 95
2019-09-29 23:00:00 17.8 8 Sudoeste 18 Sudoeste 0.2 968 1.2 95
2019-09-29 22:00:00 18.3 6 Sudoeste 17 Sur 0 967.4 1 94
2019-09-29 21:00:00 18.7 8 Sudoeste 23 Oeste 0 967 0.6 88
2019-09-29 20:00:00 19.2 11 Sudoeste 30 Sudoeste 0 966.8 0.2 85
2019-09-29 19:00:00 20 17 Sudoeste 33 Sudoeste 0 966.4 0 81
2019-09-29 18:00:00 19.8 13 Sudoeste 25 Sudoeste 0 966.4 -0.3 83
2019-09-29 17:00:00 19.4 9 Sudoeste 28 Sudoeste 0 966.6 -0.2 85
2019-09-29 16:00:00 19.7 12 Sudoeste 29 Sudoeste 0 966.4 -0.2 82
2019-09-29 15:00:00 19.9 17 Sudoeste 36 Sudoeste 0 966.7 0 76
2019-09-29 14:00:00 19.7 14 Sudoeste 33 Sudoeste 0 966.8 0.4 75
2019-09-29 13:00:00 19.4 14 Sudoeste 34 Sudoeste 0 966.6 0.8 71
2019-09-29 12:00:00 18 12 Sur 31 Sudoeste 0 966.7 1.1 72
2019-09-29 11:00:00 16.6 7 Sur 31 Sudoeste 0 966.4 0.5 74
2019-09-29 10:00:00 15.5 14 Sudoeste 33 Sudoeste 0 965.8 0.3 82
2019-09-29 09:00:00 14.8 13 Sudoeste 29 Sudoeste 0 965.6 0.1 84
2019-09-29 08:00:00 11.8 6 Sudoeste 12 Oeste 0 965.9 0.4 79
2019-09-29 07:00:00 12.2 4 Oeste 22 Sudoeste 0 965.5 -0.7 76
2019-09-29 06:00:00 13 11 Sudoeste 24 Sudoeste 0 965.5 -1.1 74
2019-09-29 05:00:00 13.3 6 Sudoeste 19 Sur 0 965.5 -1.3 74
2019-09-29 04:00:00 13.8 5 Sudoeste 19 Sur 0 966.2 -0.6 74
2019-09-29 03:00:00 13.5 6 Sudoeste 14 Sudoeste 0 966.6 -0.6 79
2019-09-29 02:00:00 13.6 4 Sudoeste 15 Sur 0 966.8 -0.1 78
2019-09-29 01:00:00 13.3 5 Sudoeste 13 Sur 0 966.8 0.1 87
2019-09-29 00:00:00 13.3 5 Sudoeste 10 Sudoeste 0 967.2 0.7 86
2019-09-28 23:00:00 14.1 5 Sudoeste 12 Sudoeste 0 966.9 0.6 88
2019-09-28 22:00:00 13.8 4 Sur 6 Sur 0 966.7 0.2 82
2019-09-28 21:00:00 16.4 3 Sudeste 4 Sur 0 966.5 -0.1 74
2019-09-28 20:00:00 20.8 5 Sudoeste 8 Sudoeste 0 966.3 -0.7 58
2019-09-28 19:00:00 23.2 5 Oeste 15 Oeste 0 966.5 -1.1 43
2019-09-28 18:00:00 24.5 7 Sudoeste 18 Oeste 0 966.6 -1.5 35
2019-09-28 17:00:00 23.9 9 Sudoeste 17 Sudoeste 0 967 -2.3 34
2019-09-28 16:00:00 22.5 8 Sudoeste 21 Sudoeste 0 967.6 -2.3 42
2019-09-28 15:00:00 20.5 9 Sudoeste 19 Oeste 0 968.1 -2.5 55
2019-09-28 14:00:00 18 13 Sudoeste 20 Sudoeste 0 969.3 -1.3 63
2019-09-28 13:00:00 15.9 12 Oeste 18 Oeste 0 969.9 -0.4 75
2019-09-28 12:00:00 10.9 3 Noroeste 7 Este 0 970.6 0.6 96
2019-09-28 11:00:00 9.1 3 Nordeste 6 Norte 0 970.6 1 100
2019-09-28 10:00:00 7 2 Norte 4 Norte 0 970.3 0.5 100
2019-09-28 09:00:00 6.1 0 Calma 4 Sudeste 0 970 0 95
2019-09-28 08:00:00 6.2 3 Sudeste 5 Sudeste 0 969.6 -0.7 97
2019-09-28 07:00:00 6.7 0 Calma 3 Sur 0 969.8 -0.5 92
2019-09-28 06:00:00 7.7 0 Calma 6 Sur 0 970 -0.6 91
2019-09-28 05:00:00 9 2 Sur 4 Sudeste 0 970.3 -0.6 91
2019-09-28 04:00:00 10.7 2 Noroeste 5 Sudeste 0 970.3 -0.7 89
2019-09-28 03:00:00 12.5 2 Sur 3 Sur 0 970.6 -0.3 90
2019-09-28 02:00:00 12.7 2 Sudoeste 3 Oeste 0 970.9 0.1 91
2019-09-28 01:00:00 12.6 2 Este 6 Sudeste 0 971 0.5 90
2019-09-28 00:00:00 12 3 Sudeste 6 Sudeste 0 970.9 0.6 92
2019-09-27 23:00:00 12.7 3 Sudeste 7 Sudeste 0 970.8 1 89
2019-09-27 22:00:00 13.5 3 Sudeste 5 Sudeste 0 970.5 1.2 86
2019-09-27 21:00:00 14.6 3 Noroeste 16 Norte 0 970.3 1.4 80
2019-09-27 20:00:00 16.4 6 Noroeste 16 Noroeste 0 969.8 0.7 74
2019-09-27 19:00:00 18.3 5 Oeste 16 Noroeste 0 969.3 0.2 68
2019-09-27 18:00:00 19.4 7 Noroeste 17 Noroeste 0 968.9 -0.4 64
2019-09-27 17:00:00 19.5 6 Noroeste 22 Noroeste 0 969.1 -0.4 65
2019-09-27 16:00:00 19.7 5 Noroeste 19 Oeste 0 969.1 -0.2 69
2019-09-27 15:00:00 17.6 6 Oeste 24 Sudoeste 0 969.3 0.3 74
2019-09-27 14:00:00 16.9 9 Sudoeste 20 Sudoeste 0.2 969.5 0.9 94
2019-09-27 13:00:00 16.2 10 Sudoeste 21 Sudoeste 0 969.3 0.9 92
2019-09-27 12:00:00 16.1 11 Sudoeste 27 Sur 0 969 0.8 89
2019-09-27 11:00:00 15.6 8 Sur 27 Sur 0 968.6 0.8 87
2019-09-27 10:00:00 14.4 10 Sudoeste 28 Sudoeste 0 968.4 0.7 90
2019-09-27 09:00:00 13.8 7 Sudoeste 20 Sur 0 968.2 0.4 92
2019-09-27 08:00:00 13.6 8 Sur 23 Sudoeste 0.2 967.8 -0.2 92
2019-09-27 07:00:00 14.2 9 Sur 24 Sur 0 967.7 -0.7 87
2019-09-27 06:00:00 14.2 10 Sudoeste 25 Sudoeste 0 967.8 -1 81
2019-09-27 05:00:00 14 8 Sur 21 Sur 0 968 -1.2 82
2019-09-27 04:00:00 14.4 10 Sur 27 Sur 0 968.4 -0.9 78
2019-09-27 03:00:00 14.9 9 Sur 25 Sur 0 968.8 -0.6 76
2019-09-27 02:00:00 15.1 8 Sudoeste 24 Oeste 0 969.2 0 75
2019-09-27 01:00:00 14.7 8 Sudoeste 21 Sudoeste 0 969.3 -0.1 77
2019-09-27 00:00:00 14.7 9 Sur 23 Sur 0 969.4 0.3 76
2019-09-26 23:00:00 14.7 9 Sudoeste 22 Sudoeste 0 969.2 0.7 76
2019-09-26 22:00:00 14.2 6 Sudoeste 17 Sudoeste 0 969.4 1.3 80
2019-09-26 21:00:00 15.4 8 Sudoeste 17 Sudoeste 0 969.1 1.6 75
2019-09-26 20:00:00 17.4 11 Oeste 26 Oeste 0 968.5 0.9 68
2019-09-26 19:00:00 20 11 Oeste 26 Sudoeste 0 968.1 0.1 60
2019-09-26 18:00:00 21.9 14 Oeste 33 Oeste 0 967.5 -0.3 51
2019-09-26 17:00:00 22.9 13 Oeste 32 Oeste 0 967.6 -0.5 50
2019-09-26 16:00:00 22.2 13 Oeste 30 Oeste 0 968 -0.7 53
2019-09-26 15:00:00 22 14 Sudoeste 31 Oeste 0 967.8 -1.1 52
2019-09-26 14:00:00 20.7 13 Sudoeste 27 Sudoeste 0 968.1 -0.8 56
2019-09-26 13:00:00 19.1 12 Sudoeste 30 Sudoeste 0 968.7 0.4 60
2019-09-26 12:00:00 17.2 12 Sudoeste 24 Sudoeste 0 968.9 0.8 68
2019-09-26 11:00:00 16.6 10 Sudoeste 19 Sur 0 968.9 1 69
2019-09-26 10:00:00 14.8 7 Sudoeste 15 Sudoeste 0 968.3 0.6 77
2019-09-26 09:00:00 14.1 6 Sudoeste 17 Sudoeste 0 968.1 0.1 80
2019-09-26 08:00:00 14 6 Sudoeste 18 Sudoeste 0 967.9 0 80
2019-09-26 07:00:00 14.1 7 Sudoeste 16 Oeste 0 967.7 -0.5 80
2019-09-26 06:00:00 14 4 Sudoeste 15 Sur 0 968 -0.3 80
2019-09-26 05:00:00 13.9 6 Sur 18 Sudoeste 0 967.9 -0.8 81
2019-09-26 04:00:00 13.7 6 Sudoeste 15 Sudoeste 0 968.2 -0.7 83
2019-09-26 03:00:00 13.4 6 Sudoeste 26 Sudoeste 0 968.3 -0.7 87
2019-09-26 02:00:00 13.2 5 Sudoeste 16 Sudoeste 0 968.7 0 88
2019-09-26 01:00:00 13.6 8 Sudoeste 17 Sudoeste 0 968.9 0.4 88
2019-09-26 00:00:00 13 6 Sudoeste 12 Sudoeste 0 969 1 91
2019-09-25 23:00:00 13.5 3 Sudoeste 11 Sudoeste 0 968.7 0.9 87
2019-09-25 22:00:00 14.6 8 Sudoeste 15 Sudoeste 0 968.5 0.6 83
2019-09-25 21:00:00 15.4 5 Sudoeste 16 Sudoeste 0 968 0 80
2019-09-25 20:00:00 16.7 11 Sudoeste 21 Oeste 0 967.8 0 72
2019-09-25 19:00:00 17.2 9 Sudoeste 23 Oeste 0 967.9 -0.1 71
2019-09-25 18:00:00 17.5 15 Oeste 26 Sudoeste 0 968 -0.3 69
2019-09-25 17:00:00 17.9 15 Sudoeste 29 Sudoeste 0 967.8 -1.2 66
2019-09-25 16:00:00 18.4 14 Sudoeste 27 Oeste 0 968 -1.1 64
2019-09-25 15:00:00 18 13 Sudoeste 26 Sudoeste 0 968.3 -1.1 65
2019-09-25 14:00:00 17.8 13 Oeste 28 Oeste 0 969 -0.1 65
2019-09-25 13:00:00 17.6 11 Sudoeste 23 Oeste 0 969.1 0.4 67
2019-09-25 12:00:00 15.5 12 Sudoeste 21 Oeste 0 969.4 1.1 78
2019-09-25 11:00:00 15.5 10 Sudoeste 22 Oeste 0 969.1 1 80
2019-09-25 10:00:00 13.9 12 Sudoeste 21 Sur 0 968.7 0.8 87
2019-09-25 09:00:00 12.8 9 Sudoeste 22 Sudoeste 0 968.3 0.4 91
2019-09-25 08:00:00 12.7 8 Sudoeste 16 Sudoeste 0 968.1 0.1 91
2019-09-25 07:00:00 12.5 5 Sudoeste 20 Sudoeste 0 967.9 -0.5 92
2019-09-25 06:00:00 12.6 7 Sudoeste 17 Sudoeste 0 967.9 -0.3 92
2019-09-25 05:00:00 12.4 6 Sudoeste 17 Sudoeste 0 968 -0.2 92
2019-09-25 04:00:00 12.4 5 Sudoeste 12 Sudoeste 0 968.4 0 94
2019-09-25 03:00:00 12.6 4 Sudoeste 13 Sudoeste 0.2 968.2 -0.2 95
2019-09-25 02:00:00 12.9 7 Sudoeste 14 Sudoeste 0 968.2 -0.2 90
2019-09-25 01:00:00 12.6 6 Sudoeste 17 Sudoeste 0 968.4 0.2 88
2019-09-25 00:00:00 12.8 9 Sudoeste 17 Sudoeste 0 968.4 0.9 86
2019-09-24 23:00:00 13.1 10 Sudoeste 18 Sudoeste 0 968.4 1.2 83
2019-09-24 22:00:00 14 11 Sudoeste 22 Oeste 0 968.2 1.6 80
2019-09-24 21:00:00 15.2 12 Sudoeste 26 Oeste 0 967.5 1.2 72
2019-09-24 20:00:00 16.3 14 Oeste 30 Sudoeste 0 967.2 1 65
2019-09-24 19:00:00 17.8 17 Oeste 33 Oeste 0 966.6 0.5 60
2019-09-24 18:00:00 19.2 15 Sudoeste 42 Oeste 0 966.3 0.3 59
2019-09-24 17:00:00 19.2 22 Oeste 45 Oeste 0 966.2 0 62
2019-09-24 16:00:00 21.1 19 Sudoeste 41 Oeste 0 966.1 -0.1 57
2019-09-24 15:00:00 19.8 25 Oeste 39 Sudoeste 0 966 0 58
2019-09-24 14:00:00 18.6 18 Oeste 33 Sudoeste 0 966.2 0.7 70
2019-09-24 13:00:00 18.3 14 Sudoeste 27 Oeste 0 966.2 1.5 74
2019-09-24 12:00:00 17.7 15 Oeste 33 Oeste 0 966 1.6 80
2019-09-24 11:00:00 18.1 15 Oeste 25 Oeste 0 965.5 1.8 84
2019-09-24 10:00:00 16.4 4 Sudoeste 17 Sudoeste 0 964.7 1.3 96
2019-09-24 09:00:00 15.6 6 Sudoeste 24 Sur 3.4 964.4 1.1 98
2019-09-24 08:00:00 15.5 12 Sudoeste 29 Sudoeste 0.2 963.7 0.7 97
2019-09-24 07:00:00 15.5 15 Sudoeste 34 Sudoeste 0 963.4 0.1 96
2019-09-24 06:00:00 15.2 15 Sudoeste 38 Sudoeste 0.2 963.3 0.3 95
2019-09-24 05:00:00 15.2 14 Sudoeste 36 Sudoeste 0.6 963 -0.7 92
2019-09-24 04:00:00 15.9 15 Sudoeste 39 Sudoeste 0.2 963.3 -0.5 87
2019-09-24 03:00:00 16.3 16 Sudoeste 38 Sudoeste 0.2 963 -1.5 82
2019-09-24 02:00:00 17.4 18 Sudoeste 41 Sur 0 963.7 -0.9 72
2019-09-24 01:00:00 17.7 14 Sudoeste 40 Sudoeste 0 963.8 -1 72
2019-09-24 00:00:00 17.9 15 Sudoeste 41 Sudoeste 0 964.5 -0.6 71
2019-09-23 23:00:00 17.8 17 Sudoeste 39 Sudeste 0 964.6 -0.5 71
2019-09-23 22:00:00 17.8 13 Sudoeste 32 Sudoeste 0 964.8 -0.2 72
2019-09-23 21:00:00 18 13 Sudoeste 30 Sudoeste 0 965.1 -0.5 71
2019-09-23 20:00:00 18.1 17 Sudoeste 32 Sudoeste 0 965.1 -0.5 71
2019-09-23 19:00:00 18.1 14 Sudoeste 33 Sudoeste 0 965 -0.8 73
2019-09-23 18:00:00 17.3 12 Sudoeste 28 Oeste 1.2 965.6 -0.5 78
2019-09-23 17:00:00 17.1 7 Sur 22 Sudoeste 0.2 965.6 -0.8 80
2019-09-23 16:00:00 16.5 12 Sudoeste 26 Sudoeste 0.4 965.8 -0.5 84
2019-09-23 15:00:00 17.2 14 Sudoeste 41 Sudoeste 0 966.1 -0.7 73
2019-09-23 14:00:00 16.1 9 Sudoeste 37 Sur 0.4 966.4 -0.4 82
2019-09-23 13:00:00 16.8 14 Sudoeste 35 Sudoeste 0 966.3 -0.7 70
2019-09-23 12:00:00 15.7 12 Sudoeste 27 Sudoeste 0 966.8 0 72
2019-09-23 11:00:00 15.2 11 Sudoeste 28 Sudoeste 0 966.8 0.8 74
2019-09-23 10:00:00 13.9 8 Sudoeste 24 Sur 0 967 0.8 79
2019-09-23 09:00:00 13.3 9 Sudoeste 22 Sudoeste 0 966.8 0.1 80
2019-09-23 08:00:00 12.9 9 Sur 25 Sur 0 966 -0.6 85
2019-09-23 07:00:00 12.9 8 Sur 27 Sur 0 966.2 -0.6 84
2019-09-23 06:00:00 12.8 8 Sur 21 Sur 0 966.7 0 85
2019-09-23 05:00:00 12.6 5 Sur 15 Sur 0 966.6 0.2 88
2019-09-23 04:00:00 12.5 7 Sudoeste 17 Sudoeste 0 966.8 0.6 89
2019-09-23 03:00:00 12.5 7 Sudoeste 16 Sur 0 966.7 0.3 88
2019-09-23 02:00:00 12.6 5 Sur 18 Sudoeste 0 966.4 0.1 86
2019-09-23 01:00:00 12.7 6 Sur 19 Sudoeste 0 966.2 0.4 84
2019-09-23 00:00:00 13.1 6 Sur 18 Sudoeste 0 966.4 1 84
2019-09-22 23:00:00 13.2 6 Sudoeste 12 Sur 0 966.3 1.4 84
2019-09-22 22:00:00 13.6 6 Sudoeste 13 Oeste 0 965.8 1.4 82
2019-09-22 21:00:00 15.1 4 Sudoeste 17 Sudoeste 0 965.4 1.5 78
2019-09-22 20:00:00 17.1 8 Oeste 21 Sudoeste 0 964.9 1.3 69
2019-09-22 19:00:00 18.8 14 Oeste 30 Oeste 0 964.4 1.1 62
2019-09-22 18:00:00 19.6 18 Oeste 33 Oeste 0 963.9 0.5 59
2019-09-22 17:00:00 19.2 14 Sudoeste 32 Oeste 0 963.6 0.2 59
2019-09-22 16:00:00 20.5 16 Oeste 39 Oeste 0 963.3 -0.1 54
2019-09-22 15:00:00 18.8 19 Oeste 36 Oeste 0 963.4 0.3 60
2019-09-22 14:00:00 17 9 Sudoeste 25 Sudoeste 0 963.4 0.7 76
2019-09-22 13:00:00 16.6 15 Sudoeste 31 Sudoeste 0 963.4 1.4 72
2019-09-22 12:00:00 15.8 14 Sudoeste 26 Sur 0 963.1 2 79
2019-09-22 11:00:00 14 11 Sudoeste 26 Sudoeste 0 962.7 2.3 85
2019-09-22 10:00:00 13.1 9 Sudoeste 20 Sudoeste 0.2 962 2.2 90
2019-09-22 09:00:00 12.2 10 Sudoeste 25 Sur 0 961.1 1.7 89
2019-09-22 08:00:00 12.5 12 Sudoeste 25 Sudoeste 0 960.4 1.3 86
2019-09-22 07:00:00 11.9 9 Sudoeste 18 Sur 0 959.8 1 92
2019-09-22 06:00:00 12.2 8 Sudoeste 16 Sudoeste 0 959.4 1.1 93
2019-09-22 05:00:00 12.6 4 Sur 19 Sudoeste 0 959.1 1.3 93
2019-09-22 04:00:00 13 6 Sudoeste 22 Sur 0 958.8 1.2 94
2019-09-22 03:00:00 13.1 8 Sudoeste 25 Sudoeste 0.4 958.3 1 95
2019-09-22 02:00:00 13.4 11 Sudoeste 30 Sur 0 957.8 0.9 92
2019-09-22 01:00:00 13.3 6 Sur 23 Sur 0 957.6 1 91
2019-09-22 00:00:00 13.3 8 Sudoeste 22 Sur 0 957.3 1.1 90
2019-09-21 23:00:00 13.3 8 Sudoeste 24 Sudoeste 0 956.9 1.3 89
2019-09-21 22:00:00 13.4 7 Sur 24 Sudoeste 0 956.6 2 90
2019-09-21 21:00:00 13.8 10 Sudoeste 25 Sudoeste 0 956.2 2.5 90
2019-09-21 20:00:00 13.8 11 Sudoeste 39 Sudoeste 1.4 955.6 1.6 92
2019-09-21 19:00:00 16.8 18 Oeste 37 Sudoeste 6.2 954.6 0.3 94
2019-09-21 18:00:00 18 7 Sur 21 Sudoeste 1.4 953.7 -1 93
2019-09-21 17:00:00 18.4 11 Sudoeste 40 Sudoeste 0.4 954 -1.3 88
2019-09-21 16:00:00 20.9 14 Sudoeste 31 Sudoeste 0 954.3 -1.4 72
2019-09-21 15:00:00 19.4 8 Sur 32 Sudoeste 0 954.7 -1 80
2019-09-21 14:00:00 19.8 15 Sudoeste 39 Sudoeste 0 955.3 -0.3 76
2019-09-21 13:00:00 20.4 13 Sudoeste 35 Sudeste 0 955.7 -0.1 71
2019-09-21 12:00:00 19.3 9 Sudoeste 29 Sur 0 955.7 -0.1 75
2019-09-21 11:00:00 17.9 8 Sur 22 Sudoeste 0 955.6 -0.1 80
2019-09-21 10:00:00 16.7 7 Sur 19 Sur 0.2 955.8 0 83
2019-09-21 09:00:00 15.8 8 Sur 24 Sur 0.6 955.8 -0.6 88
2019-09-21 08:00:00 16.2 6 Sur 16 Sur 0 955.7 -1.5 82
2019-09-21 07:00:00 15.9 6 Sur 18 Sur 0 955.8 -2.4 85
2019-09-21 06:00:00 15.6 5 Sur 21 Sur 0 956.4 -2.5 88
2019-09-21 05:00:00 14.9 5 Sur 19 Sur 0 957.2 -1.7 93
2019-09-21 04:00:00 14.4 5 Sur 12 Sur 0 958.2 -1 98
2019-09-21 03:00:00 13.8 4 Sur 10 Sur 0 958.9 -0.6 97
2019-09-21 02:00:00 14.1 5 Sur 10 Sur 0 958.9 -0.6 98
2019-09-21 01:00:00 13.6 3 Sudeste 5 Sur 0 959.2 -0.7 97
2019-09-21 00:00:00 14.3 3 Sur 5 Sudeste 0 959.5 -0.6 96
2019-09-20 23:00:00 15.1 5 Sudeste 8 Sudeste 0 959.5 -0.5 97
2019-09-20 22:00:00 15.9 4 Sudeste 8 Sur 0 959.9 0.2 97
2019-09-20 21:00:00 17 2 Sur 6 Sudoeste 0 960.1 2 94
2019-09-20 20:00:00 17.2 2 Oeste 13 Sur 12.4 960 1.6 97
2019-09-20 19:00:00 16.9 7 Este 41 Este 36.8 959.7 0.5 88
2019-09-20 18:00:00 25.2 13 Este 46 Sudeste 1.6 958.1 -2 53
2019-09-20 17:00:00 27.8 8 Sudoeste 25 Oeste 0 958.4 -2.1 42
2019-09-20 16:00:00 28.8 13 Sudoeste 30 Sudoeste 0 959.2 -2.1 38
2019-09-20 15:00:00 27.7 13 Sudoeste 21 Sudoeste 0 960.1 -1.7 42
2019-09-20 14:00:00 24.8 5 Noroeste 10 Noroeste 0 960.5 -1.6 59
2019-09-20 13:00:00 20.6 3 Noroeste 9 Norte 0 961.3 -0.9 76
2019-09-20 12:00:00 18.9 4 Oeste 11 Noroeste 0 961.8 -0.3 82
2019-09-20 11:00:00 16.3 3 Este 6 Nordeste 0 962.1 0.2 91
2019-09-20 10:00:00 14.6 2 Este 5 Sur 0 962.2 0.2 99
2019-09-20 09:00:00 13.9 2 Sur 5 Sur 0 962.1 -0.2 100
2019-09-20 08:00:00 13.3 3 Sudeste 6 Sudeste 0 961.9 -0.8 99
2019-09-20 07:00:00 13.6 3 Sudoeste 5 Sur 0 962 -1.2 98
2019-09-20 06:00:00 14.1 2 Sur 8 Sudoeste 0 962.3 -1.6 96
2019-09-20 05:00:00 14.6 3 Sur 10 Sudoeste 0 962.7 -1.5 97
2019-09-20 04:00:00 15.5 3 Oeste 6 Oeste 0 963.2 -1.2 98
2019-09-20 03:00:00 15.7 3 Este 5 Nordeste 0 963.9 -1 97
2019-09-20 02:00:00 16.1 3 Noroeste 6 Oeste 0 964.2 -0.9 96
2019-09-20 01:00:00 16.2 2 Nordeste 6 Nordeste 0 964.4 -0.5 95
2019-09-20 00:00:00 16.2 3 Nordeste 8 Nordeste 0 964.9 0.1 95